x

Columbia River Bar - 20nm West Of Columbia River Mouth (46029) Wave Buoy

2:50am - Wed 20th Mar 2019 All times are PDT. -7 hours from GMT.

  • Sig Wave height 6.9ft
  • Swell Direction
  • Peak Period 15s
  • Average Period 10s
  • Wind
    7mph, 7mph gusts
  • Sea Temp 48°f
  • Air Temp 50°f
  • Sea Pressure 1011.3mb
  • Columbia River Bar - 20nm West Of Columbia River Mouth
  • Columbia River Bar - 20nm West Of Columbia River Mouth

More Historic Weather Station data

Upgrade to MSW Pro to gain access to the past 30 days of data for over 8000 Wavebouys and Weather Stations around the globe.

Join

Comparision Forecast

View Surf forecast
   
Wed 03/20 2:50am 7ft 15s 10s 7 7 mph 1011.3mb 48f 50f
1:50am 7ft 14s 9s 7 9 mph 1011.3mb 49f 51f
12:50am 7.5ft 15s 9s 4 7 mph 1011mb 49f 55f
Tue 03/19 11:50pm 6ft 15s 9s 13 16 mph 1010.1mb 48f 55f
10:50pm 7.5ft 15s 10s 11 13 mph 1010mb 49f 56f
9:50pm 7ft 15s 10s 9 11 mph 1010.2mb 49f 55f
8:50pm 7.5ft 16s 10s 13 16 mph 1010.1mb 49f 58f
7:50pm 6ft 14s 8s 13 18 mph 1010.1mb 49f 58f
6:50pm 6.5ft 14s 9s 13 16 mph 1010.3mb 49f 57f
5:50pm 7.5ft 14s 10s 13 16 mph 1010.8mb 49f 59f
4:50pm 7ft 15s 9s 11 16 mph 1011.5mb 49f 57f
3:50pm 7ft 14s 8s 11 13 mph 1012mb 48f 55f
2:50pm 7ft 12s 8s 13 18 mph 1012mb 48f 57f
1:50pm 7.5ft 16s 8s 16 18 mph 1012.5mb 48f 58f
12:50pm 8ft 14s 8s 16 18 mph 1012.5mb 48f 56f
11:50am 6.5ft 13s 8s 13 18 mph 1012.5mb 48f 54f
10:50am 7ft 15s 7s 11 13 mph 1012.7mb 48f 53f
9:50am 7ft 13s 8s 20 22 mph 1012.3mb 48f 53f
8:50am 6.5ft 12s 7s 20 25 mph 1012.4mb 48f 54f
7:50am 7ft 15s 7s 20 25 mph 1012.8mb 48f 53f
6:50am 6.5ft 15s 7s 20 22 mph 1013.2mb 48f 53f
5:50am 7ft 16s 7s 18 22 mph 1013.6mb 48f 53f
4:50am 7ft 16s 7s 20 25 mph 1013.7mb 48f 53f
3:50am 6ft 14s 6s 20 25 mph 1014.1mb 48f 53f
2:50am 6ft 14s 6s 22 25 mph 1014.3mb 48f 54f
1:50am 5.5ft 12s 6s 22 25 mph 1014.2mb 49f 54f
12:50am 5.5ft 14s 6s 20 25 mph 1014.3mb 48f 54f
Mon 03/18 11:50pm 5ft 11s 6s 20 25 mph 1014.7mb 49f 55f
10:50pm 5ft 11s 7s 22 29 mph 1014.6mb 49f 56f
9:50pm 5ft 11s 6s 18 22 mph 1014.8mb 49f 56f
8:50pm 4.5ft 11s 7s 20 22 mph 1014.7mb 49f 57f
7:50pm 4.5ft 11s 6s 18 22 mph 1014.8mb 49f 60f
6:50pm 5ft 12s 7s 18 20 mph 1014.5mb 49f 58f
5:50pm 4.5ft 11s 5s 18 20 mph 1014.6mb 49f 60f
4:50pm 5ft 11s 6s 18 20 mph 1014.8mb 49f 58f
3:50pm 6ft 11s 6s 16 20 mph 1015.3mb 48f 59f
2:50pm 5.5ft 11s 6s 16 18 mph 1016.1mb 48f 56f
1:50pm 5.5ft 12s 6s 16 18 mph 1017mb 48f 56f
12:50pm 6ft 11s 6s 18 20 mph 1017.1mb 48f 55f
11:50am 6ft 13s 6s 18 25 mph 1017.5mb 48f 55f
10:50am 5.5ft 12s 6s 20 25 mph 1017.6mb 48f 53f
9:50am 5.5ft 11s 6s 20 27 mph 1017.6mb 48f 53f
8:50am 5.5ft 13s 6s 27 34 mph 1017.6mb 48f 53f
7:50am 5.5ft 12s 6s 22 27 mph 1017.7mb 48f 53f
6:50am 6ft 13s 6s 25 29 mph 1018.1mb 48f 51f
5:50am 6ft 13s 7s 20 25 mph 1018.7mb 48f 52f
4:50am 6ft 12s 7s 20 22 mph 1019.1mb 48f 52f
3:50am 5.5ft 13s 6s 20 25 mph 1019.3mb 49f 52f
2:50am 6ft 13s 8s 18 22 mph 1019.7mb 48f 53f
1:50am 6ft 12s 8s 16 20 mph 1020mb 48f 53f
12:50am 6ft 13s 9s 16 20 mph 1020.5mb 49f 54f
Sun 03/17 11:50pm 6.5ft 14s 9s 13 18 mph 1020.5mb 49f 53f
10:50pm 6.5ft 11s 9s 16 20 mph 1020.5mb 49f 55f
9:50pm 7ft 14s 9s 13 16 mph 1020.5mb 49f 55f
8:50pm 7ft 13s 9s 11 13 mph 1020.4mb 49f 52f
7:50pm 7ft 14s 8s 16 18 mph 1020.3mb 49f 51f
6:50pm 7ft 14s 8s 18 20 mph 1020.7mb 49f 51f
5:50pm 8ft 13s 9s 20 22 mph 1021.2mb 50f 52f
4:50pm 7.5ft 14s 10s 16 20 mph 1021.9mb 50f 52f
3:50pm 8ft 14s 10s 13 16 mph 1022.4mb 49f 52f
2:50pm 8ft 12s 11s 9 11 mph 1022.8mb 49f 51f
1:50pm 9ft 13s 11s 9 11 mph 1023.6mb 49f 50f
12:50pm 9ft 13s 11s 9 9 mph 1023.9mb 49f 49f
11:50am 8ft 12s 10s 9 11 mph 1024.1mb 48f 48f
10:50am 8.5ft 15s 11s 7 9 mph 1024.5mb 48f 48f
9:50am 8ft 13s 10s 9 11 mph 1024.4mb 48f 47f
8:50am 10ft 16s 11s 7 9 mph 1024.6mb 47f 47f
7:50am 9ft 16s 11s 7 9 mph 1024.3mb 47f 47f
6:50am 10ft 16s 11s 9 11 mph 1024.1mb 47f 47f
5:50am 8ft 15s 10s 11 13 mph 1024.4mb 48f 48f
4:50am 9ft 15s 10s 11 13 mph 1024.4mb 48f 48f
3:50am 9ft 16s 11s 9 11 mph 1024.6mb 48f 48f
2:50am 8.5ft 16s 12s 11 11 mph 1024.9mb 48f 48f
1:50am 8ft 17s 11s 9 11 mph 1024.8mb 48f 48f
12:50am 7.5ft 17s 11s 9 11 mph 1024.8mb 48f 48f
Sat 03/16 11:50pm 6.5ft 17s 11s 7 9 mph 1024.8mb 48f 48f
10:50pm 5.5ft 17s 11s 7 9 mph 1024.6mb 48f 48f
9:50pm 5.5ft 19s 11s 4 7 mph 1024.5mb 48f 48f
8:50pm 5ft 19s 10s 7 7 mph 1024.3mb 48f 48f
7:50pm 5ft 13s 10s 7 9 mph 1024.1mb 48f 48f
6:50pm 4.5ft 13s 9s 7 7 mph 1024.5mb 48f 49f
5:50pm 5ft 13s 9s 9 9 mph 1024.7mb 48f 49f
4:50pm 4.5ft 11s 9s 7 7 mph 1025.1mb 48f 49f
3:50pm 5ft 13s 9s 4 7 mph 1025.4mb 48f 49f
2:50pm 5ft 13s 9s 7 9 mph 1025.2mb 47f 48f
1:50pm 5ft 12s 9s 4 7 mph 1025.4mb 47f 48f
12:50pm 4.5ft 14s 9s 4 4 mph 1025.4mb 47f 47f
11:50am 5ft 13s 9s 4 4 mph 1025.2mb 46f 47f